createdAt,value
2023-04-18T00:02:19.217Z,100935.00
2023-04-18T00:04:47.941Z,100941.22
2023-04-18T00:07:35.340Z,100938.53
2023-04-18T00:10:07.230Z,100936.75
2023-04-18T00:12:36.528Z,100931.41
2023-04-18T00:15:05.926Z,100929.69
2023-04-18T00:17:38.677Z,100939.44
2023-04-18T00:20:10.488Z,100928.78
2023-04-18T00:22:42.963Z,100928.78
2023-04-18T00:25:12.045Z,100928.84
2023-04-18T00:27:43.156Z,100935.00
2023-04-18T00:30:14.135Z,100921.75
2023-04-18T00:32:43.921Z,100930.63
2023-04-18T00:35:12.176Z,100922.63
2023-04-18T00:37:40.514Z,100921.84
2023-04-18T00:40:10.877Z,100920.16
2023-04-18T00:42:40.388Z,100916.75
2023-04-18T00:45:09.631Z,100921.31
2023-04-18T00:47:38.572Z,100924.09
2023-04-18T00:50:12.696Z,100918.81
2023-04-18T00:52:42.261Z,100916.28
2023-04-18T00:55:14.026Z,100915.44
2023-04-18T00:57:43.273Z,100914.53
2023-04-18T01:00:12.501Z,100916.34
2023-04-18T01:02:42.082Z,100917.25
2023-04-18T01:05:12.021Z,100923.53
2023-04-18T01:07:41.927Z,100920.03
2023-04-18T01:10:11.824Z,100922.72
2023-04-18T01:12:41.814Z,100915.69
2023-04-18T01:15:10.426Z,100910.44
2023-04-18T01:17:43.632Z,100911.34
2023-04-18T01:20:14.353Z,100914.09
2023-04-18T01:24:11.159Z,100914.22
2023-04-18T01:26:44.879Z,100913.41
2023-04-18T01:29:13.238Z,100909.91
2023-04-18T01:31:42.317Z,100903.81
2023-04-18T01:34:10.822Z,100903.88
2023-04-18T01:36:40.872Z,100900.44
2023-04-18T01:39:14.838Z,100897.00
2023-04-18T01:41:45.355Z,100895.38
2023-04-18T01:44:13.801Z,100891.88
2023-04-18T01:46:42.116Z,100896.38
2023-04-18T01:49:12.831Z,100896.38
2023-04-18T01:51:44.066Z,100891.06
2023-04-18T01:54:12.259Z,100894.63
2023-04-18T01:56:42.027Z,100870.91
2023-04-18T01:59:10.249Z,100884.94
2023-04-18T02:01:39.971Z,100890.25
2023-04-18T02:04:08.177Z,100884.97
2023-04-18T02:06:39.948Z,100880.50
2023-04-18T02:09:11.767Z,100877.88
2023-04-18T02:11:41.212Z,100885.88
2023-04-18T02:14:09.699Z,100889.41
2023-04-18T02:16:38.880Z,100883.22
2023-04-18T02:19:07.276Z,100887.66
2023-04-18T02:21:39.431Z,100890.25
2023-04-18T02:24:09.505Z,100892.06
2023-04-18T02:26:37.556Z,100892.16
2023-04-18T02:29:07.132Z,100884.19
2023-04-18T02:31:38.865Z,100886.03
2023-04-18T02:34:07.835Z,100894.84
2023-04-18T02:36:36.232Z,100886.91
2023-04-18T02:39:04.487Z,100898.44
2023-04-18T02:41:37.706Z,100891.34
2023-04-18T02:44:07.567Z,100892.25
2023-04-18T02:46:39.110Z,100899.34
2023-04-18T02:49:12.143Z,100893.13
2023-04-18T02:51:40.573Z,100889.56
2023-04-18T02:54:08.870Z,100901.91
2023-04-18T02:56:54.495Z,100896.59
2023-04-18T02:59:32.707Z,100890.34
2023-04-18T03:02:16.496Z,100894.75
2023-04-18T03:04:51.485Z,100889.44
2023-04-18T03:07:20.264Z,100895.56
2023-04-18T03:09:52.657Z,100894.69
2023-04-18T03:12:26.977Z,100896.41
2023-04-18T03:14:56.415Z,100900.84
2023-04-18T03:17:29.350Z,100905.25
2023-04-18T03:19:57.404Z,100873.53
2023-04-18T03:22:25.903Z,100899.06
2023-04-18T03:25:00.058Z,100899.06
2023-04-18T03:27:51.217Z,100894.63
2023-04-18T03:30:22.909Z,100892.84
2023-04-18T03:32:56.126Z,100897.25
2023-04-18T03:35:27.049Z,100879.63
2023-04-18T03:37:56.093Z,100890.19
2023-04-18T03:40:36.010Z,100880.47
2023-04-18T03:43:10.992Z,100881.28
2023-04-18T03:45:41.319Z,100887.47
2023-04-18T03:48:09.442Z,100891.06
2023-04-18T03:50:42.903Z,100892.81
2023-04-18T03:53:12.166Z,100898.09
2023-04-18T03:55:40.591Z,100893.69
2023-04-18T03:58:10.575Z,100885.75
2023-04-18T04:00:41.647Z,100888.41
2023-04-18T04:03:12.539Z,100885.75
2023-04-18T04:05:41.368Z,100892.84
2023-04-18T04:08:09.782Z,100886.69
2023-04-18T04:10:37.873Z,100887.56
2023-04-18T04:13:08.070Z,100890.25
2023-04-18T04:15:39.647Z,100891.16
2023-04-18T04:18:12.090Z,100885.88
2023-04-18T04:20:43.461Z,100888.59
2023-04-18T04:23:15.285Z,100900.16
2023-04-18T04:25:46.926Z,100896.69
2023-04-18T04:28:33.196Z,100889.69
2023-04-18T04:31:06.955Z,100903.84
2023-04-18T04:33:39.195Z,100894.16
2023-04-18T04:36:17.329Z,100902.13
2023-04-18T04:38:48.277Z,100904.78
2023-04-18T04:41:22.587Z,100895.09
2023-04-18T04:43:52.335Z,100895.06
2023-04-18T04:46:25.293Z,100896.81
2023-04-18T04:48:58.579Z,100887.13
2023-04-18T04:51:33.328Z,100897.66
2023-04-18T04:54:01.774Z,100898.56
2023-04-18T04:56:30.368Z,100896.84
2023-04-18T04:59:01.916Z,100896.00
2023-04-18T05:01:48.387Z,100899.53
2023-04-18T05:04:18.681Z,100902.19
2023-04-18T05:06:49.504Z,100903.06
2023-04-18T05:09:17.680Z,100906.63
2023-04-18T05:11:45.918Z,100908.41
2023-04-18T05:14:14.422Z,100911.94
2023-04-18T05:16:42.662Z,100909.25
2023-04-18T05:19:11.001Z,100919.84
2023-04-18T05:21:42.674Z,100924.28
2023-04-18T05:24:12.272Z,100925.16
2023-04-18T05:26:40.914Z,100925.16
2023-04-18T05:29:08.904Z,100933.94
2023-04-18T05:31:37.423Z,100940.13
2023-04-18T05:34:05.494Z,100941.84
2023-04-18T05:36:33.821Z,100948.00
2023-04-18T05:39:03.319Z,100955.03
2023-04-18T05:41:31.802Z,100947.94
2023-04-18T05:44:16.882Z,100950.56
2023-04-18T05:46:45.481Z,100951.41
2023-04-18T05:49:13.832Z,100954.03
2023-04-18T05:51:42.042Z,100959.28
2023-04-18T05:54:11.835Z,100958.41
2023-04-18T05:56:42.347Z,100951.34
2023-04-18T05:59:10.767Z,100963.69
2023-04-18T06:01:41.053Z,100961.97
2023-04-18T06:04:11.911Z,100963.75
2023-04-18T06:06:42.978Z,100959.28
2023-04-18T06:09:12.707Z,100955.72
2023-04-18T06:11:40.771Z,100968.94
2023-04-18T06:14:09.023Z,100973.31
2023-04-18T06:16:39.776Z,100974.19
2023-04-18T06:19:07.961Z,100975.84
2023-04-18T06:25:04.427Z,100985.59
2023-04-18T06:27:32.623Z,100981.13
2023-04-18T06:30:03.147Z,100982.03
2023-04-18T06:32:32.344Z,100983.75
2023-04-18T06:35:00.441Z,100982.09
2023-04-18T06:37:28.946Z,100983.88
2023-04-18T06:39:57.114Z,100985.59
2023-04-18T06:42:29.034Z,100986.38
2023-04-18T06:44:57.722Z,100976.66
2023-04-18T06:47:25.996Z,100984.53
2023-04-18T06:49:54.155Z,100982.63
2023-04-18T06:52:22.169Z,100983.47
2023-04-18T06:54:50.152Z,100988.78
2023-04-18T06:57:18.271Z,100985.19
2023-04-18T06:59:47.713Z,100979.84
2023-04-18T07:02:15.940Z,100985.19
2023-04-18T07:04:46.622Z,100982.50
2023-04-18T07:07:14.939Z,100980.75
2023-04-18T07:09:43.310Z,100987.78
2023-04-18T07:12:11.530Z,100980.75
2023-04-18T07:14:40.446Z,100985.06
2023-04-18T07:17:10.006Z,100984.16
2023-04-18T07:19:38.206Z,100990.28
2023-04-18T07:22:06.291Z,100986.59
2023-04-18T07:24:34.583Z,100996.31
2023-04-18T07:27:03.553Z,100991.00
2023-04-18T07:29:34.238Z,100988.31
2023-04-18T07:32:16.127Z,100983.84
2023-04-18T07:34:45.736Z,100982.03
2023-04-18T07:37:15.247Z,100982.81
2023-04-18T07:39:43.392Z,100986.34
2023-04-18T07:42:11.752Z,100987.09
2023-04-18T07:44:39.926Z,100991.47
2023-04-18T07:47:10.455Z,100993.94
2023-04-18T07:49:42.745Z,100993.00
2023-04-18T07:52:13.033Z,100990.28
2023-04-18T07:54:41.105Z,100987.47
2023-04-18T07:57:09.379Z,100988.25
2023-04-18T07:59:37.711Z,100985.72
2023-04-18T08:02:06.419Z,100989.97
2023-04-18T08:04:37.119Z,100984.28
2023-04-18T08:07:06.766Z,101002.44
2023-04-18T08:09:34.813Z,100999.03
2023-04-18T08:12:02.950Z,100993.69
2023-04-18T08:14:31.077Z,100992.63
2023-04-18T08:16:59.138Z,100988.00
2023-04-18T08:19:27.399Z,100956.25
2023-04-18T08:21:55.592Z,101001.31
2023-04-18T08:24:25.172Z,101002.50
2023-04-18T08:26:56.875Z,101010.72
2023-04-18T08:29:24.940Z,101006.19
2023-04-18T08:31:53.377Z,101008.63
2023-04-18T08:34:22.052Z,100999.84
2023-04-18T08:36:52.766Z,101004.97
2023-04-18T08:39:25.248Z,101004.22
2023-04-18T08:41:59.696Z,101007.69
2023-04-18T08:44:30.662Z,101013.72
2023-04-18T08:47:03.143Z,101008.66
2023-04-18T08:49:31.948Z,101006.66
2023-04-18T08:52:02.363Z,101009.16
2023-04-18T08:54:31.283Z,101010.78
2023-04-18T08:57:06.848Z,101005.34
2023-04-18T08:59:37.581Z,101009.47
2023-04-18T09:02:09.066Z,101010.38
2023-04-18T09:04:38.589Z,101010.91
2023-04-18T09:07:08.691Z,101014.19
2023-04-18T09:09:45.124Z,101020.19
2023-04-18T09:12:18.212Z,101010.94
2023-04-18T09:14:48.586Z,101014.19
2023-04-18T09:17:31.660Z,101017.75
2023-04-18T09:20:00.533Z,101018.53
2023-04-18T09:22:46.260Z,101015.88
2023-04-18T09:25:26.066Z,101012.59
2023-04-18T09:27:57.265Z,101006.94
2023-04-18T09:30:36.983Z,101005.94
2023-04-18T09:33:07.534Z,101010.31
2023-04-18T09:35:38.997Z,101013.16
2023-04-18T09:38:09.867Z,101007.44
2023-04-18T09:40:40.709Z,101021.31
2023-04-18T09:43:21.350Z,101005.28
2023-04-18T09:45:49.756Z,101008.34
2023-04-18T09:48:21.345Z,101008.84
2023-04-18T09:50:50.815Z,101004.53
2023-04-18T09:53:21.046Z,101010.03
2023-04-18T09:55:52.378Z,101005.00
2023-04-18T09:58:23.266Z,101003.31
2023-04-18T10:00:52.891Z,101003.34
2023-04-18T10:03:30.895Z,101001.34
2023-04-18T10:06:01.914Z,101005.78
2023-04-18T10:08:30.478Z,101004.03
2023-04-18T10:11:00.162Z,101003.94
2023-04-18T10:13:33.257Z,101009.69
2023-04-18T10:16:01.846Z,101005.13
2023-04-18T10:18:30.154Z,101003.84
2023-04-18T10:21:03.296Z,101001.88
2023-04-18T10:23:39.215Z,100998.66
2023-04-18T10:26:12.392Z,100995.97
2023-04-18T10:28:58.633Z,100993.88
2023-04-18T10:31:28.495Z,100984.69
2023-04-18T10:36:30.243Z,100986.78
2023-04-18T10:39:03.115Z,100984.53
2023-04-18T10:41:32.657Z,100978.59
2023-04-18T10:44:29.460Z,100977.69
2023-04-18T10:47:20.954Z,100973.06
2023-04-18T10:50:01.239Z,100980.50
2023-04-18T10:52:30.635Z,100975.31
2023-04-18T10:55:16.962Z,100970.44
2023-04-18T10:57:48.620Z,100977.72
2023-04-18T11:00:21.517Z,100968.09
2023-04-18T11:02:50.688Z,100965.00
2023-04-18T11:05:26.598Z,100962.81
2023-04-18T11:07:55.314Z,100964.38
2023-04-18T11:10:27.131Z,100956.84
2023-04-18T11:12:56.596Z,100948.59
2023-04-18T11:15:30.368Z,100944.56
2023-04-18T11:18:00.755Z,100940.81
2023-04-18T11:20:39.671Z,100942.59
2023-04-18T11:26:04.622Z,100945.44
2023-04-18T11:28:32.948Z,100939.44
2023-04-18T11:31:03.008Z,100933.59
2023-04-18T11:33:31.333Z,100944.84
2023-04-18T11:35:59.884Z,100932.56
2023-04-18T11:38:30.840Z,100933.00
2023-04-18T11:40:59.050Z,100933.34
2023-04-18T11:43:28.491Z,100927.00
2023-04-18T11:46:00.130Z,100941.66
2023-04-18T11:48:36.126Z,100929.94
2023-04-18T11:51:04.272Z,100935.81
2023-04-18T11:53:35.750Z,100930.81
2023-04-18T11:56:04.064Z,100936.06
2023-04-18T11:58:35.502Z,100934.56
2023-04-18T12:01:17.348Z,100942.88
2023-04-18T12:03:46.078Z,100936.13
2023-04-18T12:06:14.486Z,100948.59
2023-04-18T12:08:44.465Z,100940.34
2023-04-18T12:11:21.357Z,100936.19
2023-04-18T12:13:50.999Z,100949.28
2023-04-18T12:16:21.890Z,100944.19
2023-04-18T12:18:50.069Z,100931.25
2023-04-18T12:21:18.208Z,100941.09
2023-04-18T12:23:46.497Z,100921.72
2023-04-18T12:26:16.660Z,100934.19
2023-04-18T12:28:48.059Z,100948.78
2023-04-18T12:31:17.570Z,100936.38
2023-04-18T12:33:45.675Z,100939.25
2023-04-18T12:36:16.141Z,100943.31
2023-04-18T12:38:46.686Z,100933.16
2023-04-18T12:41:14.753Z,100940.81
2023-04-18T12:43:43.305Z,100934.03
2023-04-18T12:46:11.333Z,100938.28
2023-04-18T12:48:44.086Z,100941.91
2023-04-18T12:51:12.549Z,100944.91
2023-04-18T12:53:43.626Z,100938.41
2023-04-18T12:56:11.688Z,100944.63
2023-04-18T12:58:39.772Z,100941.09
2023-04-18T13:01:08.057Z,100936.13
2023-04-18T13:03:37.279Z,100938.47
2023-04-18T13:06:08.048Z,100942.25
2023-04-18T13:08:37.535Z,100938.81
2023-04-18T13:11:05.989Z,100942.25
2023-04-18T13:13:35.766Z,100943.16
2023-04-18T13:16:06.970Z,100940.97
2023-04-18T13:18:37.726Z,100937.78
2023-04-18T13:21:07.673Z,100930.41
2023-04-18T13:23:35.766Z,100924.34
2023-04-18T13:26:03.893Z,100926.78
2023-04-18T13:28:31.976Z,100925.88
2023-04-18T13:31:00.046Z,100925.66
2023-04-18T13:33:28.187Z,100932.94
2023-04-18T13:35:59.358Z,100933.06
2023-04-18T13:38:29.104Z,100928.00
2023-04-18T13:41:08.963Z,100936.56
2023-04-18T13:43:40.031Z,100927.09
2023-04-18T13:46:08.682Z,100929.72
2023-04-18T13:48:36.745Z,100927.66
2023-04-18T13:51:05.737Z,100917.16
2023-04-18T13:53:35.477Z,100928.84
2023-04-18T13:56:03.554Z,100920.13
2023-04-18T13:58:34.047Z,100919.56
2023-04-18T14:01:02.789Z,100911.03
2023-04-18T14:03:31.483Z,100912.06
2023-04-18T14:05:59.666Z,100913.34
2023-04-18T14:08:27.717Z,100912.31
2023-04-18T14:10:59.578Z,100916.44
2023-04-18T14:13:27.714Z,100917.22
2023-04-18T14:15:55.825Z,100905.34
2023-04-18T14:18:26.460Z,100906.31
2023-04-18T14:20:54.858Z,100907.47
2023-04-18T14:23:26.095Z,100892.34
2023-04-18T14:25:54.367Z,100908.03
2023-04-18T14:28:25.114Z,100905.50
2023-04-18T14:30:55.531Z,100906.03
2023-04-18T14:33:24.415Z,100901.00
2023-04-18T14:35:52.479Z,100905.94
2023-04-18T14:38:22.855Z,100903.03
2023-04-18T14:40:51.472Z,100904.84
2023-04-18T14:43:19.832Z,100886.25
2023-04-18T14:45:49.420Z,100897.00
2023-04-18T14:48:17.870Z,100898.31
2023-04-18T14:50:48.079Z,100901.88
2023-04-18T14:53:16.513Z,100891.97
2023-04-18T14:55:46.071Z,100900.94
2023-04-18T14:58:16.454Z,100893.22
2023-04-18T15:00:44.807Z,100889.28
2023-04-18T15:03:16.909Z,100893.66
2023-04-18T15:05:49.250Z,100890.81
2023-04-18T15:08:17.537Z,100894.09
2023-04-18T15:10:50.524Z,100888.88
2023-04-18T15:13:19.053Z,100887.03
2023-04-18T15:15:52.691Z,100885.13
2023-04-18T15:18:24.683Z,100886.16
2023-04-18T15:20:53.744Z,100884.41
2023-04-18T15:23:22.208Z,100879.63
2023-04-18T15:25:50.301Z,100881.56
2023-04-18T15:28:19.181Z,100886.53
2023-04-18T15:30:47.538Z,100880.47
2023-04-18T15:33:17.910Z,100882.94
2023-04-18T15:35:50.374Z,100881.31
2023-04-18T15:38:19.146Z,100868.88
2023-04-18T15:40:49.667Z,100876.00
2023-04-18T15:43:18.240Z,100874.19
2023-04-18T15:45:48.942Z,100881.91
2023-04-18T15:48:17.135Z,100877.69
2023-04-18T15:50:52.152Z,100882.50
2023-04-18T15:53:20.654Z,100884.88
2023-04-18T15:55:48.710Z,100882.22
2023-04-18T15:58:16.819Z,100873.97
2023-04-18T16:00:44.934Z,100873.91
2023-04-18T16:03:15.472Z,100872.09
2023-04-18T16:05:47.615Z,100875.84
2023-04-18T16:08:17.190Z,100874.09
2023-04-18T16:10:45.353Z,100878.94
2023-04-18T16:13:16.140Z,100878.25
2023-04-18T16:15:48.021Z,100876.91
2023-04-18T16:18:16.319Z,100871.06
2023-04-18T16:20:44.491Z,100873.16
2023-04-18T16:23:15.320Z,100869.66
2023-04-18T16:27:06.376Z,100880.28
2023-04-18T16:29:34.732Z,100876.03
2023-04-18T16:32:03.000Z,100886.00
2023-04-18T16:34:31.273Z,100887.50
2023-04-18T16:36:59.460Z,100886.47
2023-04-18T16:39:28.679Z,100883.78
2023-04-18T16:41:57.557Z,100881.47
2023-04-18T16:44:27.110Z,100881.59
2023-04-18T16:46:55.275Z,100895.78
2023-04-18T16:49:23.973Z,100892.38
2023-04-18T16:51:52.958Z,100874.00
2023-04-18T16:54:21.340Z,100880.84
2023-04-18T16:56:49.490Z,100888.69
2023-04-18T16:59:17.787Z,100897.63
2023-04-18T17:01:47.352Z,100895.94
2023-04-18T17:04:16.271Z,100890.56
2023-04-18T17:06:44.909Z,100903.97
2023-04-18T17:09:13.675Z,100901.53
2023-04-18T17:11:42.380Z,100902.41
2023-04-18T17:14:10.511Z,100906.50
2023-04-18T17:16:40.147Z,100906.81
2023-04-18T17:19:10.765Z,100913.28
2023-04-18T17:21:39.434Z,100901.53
2023-04-18T17:24:08.077Z,100902.41
2023-04-18T17:26:37.743Z,100910.81
2023-04-18T17:29:05.970Z,100903.88
2023-04-18T17:31:34.857Z,100907.69
2023-04-18T17:34:03.556Z,100909.66
2023-04-18T17:36:33.341Z,100916.13
2023-04-18T17:39:06.217Z,100920.66
2023-04-18T17:41:38.030Z,100917.50
2023-04-18T17:44:07.801Z,100925.84
2023-04-18T17:46:36.210Z,100920.78
2023-04-18T17:49:04.679Z,100921.09
2023-04-18T17:51:34.479Z,100925.00
2023-04-18T17:54:02.971Z,100926.25
2023-04-18T17:56:31.392Z,100937.34
2023-04-18T17:59:02.629Z,100931.25
2023-04-18T18:01:31.649Z,100932.34
2023-04-18T18:03:59.856Z,100944.13
2023-04-18T18:06:28.586Z,100950.53
2023-04-18T18:09:00.585Z,100941.97
2023-04-18T18:11:29.095Z,100946.63
2023-04-18T18:13:57.884Z,100944.13
2023-04-18T18:16:26.434Z,100949.66
2023-04-18T18:18:54.740Z,100949.84
2023-04-18T18:21:22.990Z,100959.88
2023-04-18T18:23:51.060Z,100953.84
2023-04-18T18:26:20.880Z,100970.03
2023-04-18T18:28:51.567Z,100963.88
2023-04-18T18:31:23.022Z,100962.31
2023-04-18T18:33:53.783Z,100966.72
2023-04-18T18:36:22.095Z,100974.00
2023-04-18T18:38:50.238Z,100979.28
2023-04-18T18:41:22.593Z,100971.31
2023-04-18T18:43:53.553Z,100981.22
2023-04-18T18:46:21.714Z,100979.53
2023-04-18T18:48:49.980Z,100989.38
2023-04-18T18:51:19.993Z,100991.28
2023-04-18T18:53:51.147Z,101000.28
2023-04-18T18:56:20.825Z,101008.38
2023-04-18T18:58:49.209Z,101006.78
2023-04-18T19:01:17.330Z,101008.72
2023-04-18T19:03:45.824Z,101011.53
2023-04-18T19:06:14.994Z,101011.56
2023-04-18T19:08:45.846Z,101016.97
2023-04-18T19:11:18.282Z,101017.16
2023-04-18T19:13:48.050Z,101012.72
2023-04-18T19:16:16.421Z,101016.25
2023-04-18T19:18:47.215Z,101013.66
2023-04-18T19:21:20.327Z,101022.53
2023-04-18T19:23:50.754Z,101019.75
2023-04-18T19:26:21.416Z,101021.66
2023-04-18T19:28:51.369Z,101021.75
2023-04-18T19:31:20.022Z,101024.34
2023-04-18T19:33:48.495Z,101027.19
2023-04-18T19:36:16.795Z,101015.66
2023-04-18T19:38:47.631Z,101022.88
2023-04-18T19:41:15.944Z,101022.81
2023-04-18T19:43:44.607Z,101024.72
2023-04-18T19:46:14.265Z,101034.56
2023-04-18T19:48:42.713Z,101027.41
2023-04-18T19:51:10.965Z,101029.22
2023-04-18T19:53:40.293Z,101030.16
2023-04-18T19:56:10.855Z,101034.56
2023-04-18T19:58:46.899Z,101037.31
2023-04-18T20:01:17.514Z,101037.31
2023-04-18T20:03:46.006Z,101036.53
2023-04-18T20:06:20.276Z,101041.91
2023-04-18T20:08:48.506Z,101038.41
2023-04-18T20:11:18.013Z,101028.69
2023-04-18T20:13:46.467Z,101041.22
2023-04-18T20:16:16.975Z,101037.59
2023-04-18T20:18:47.336Z,101041.28
2023-04-18T20:21:16.319Z,101015.78
2023-04-18T20:23:45.298Z,101032.38
2023-04-18T20:26:13.743Z,101043.94
2023-04-18T20:28:41.945Z,101044.94
2023-04-18T20:31:12.742Z,101043.16
2023-04-18T20:33:42.552Z,101046.88
2023-04-18T20:36:11.380Z,101052.28
2023-04-18T20:38:40.249Z,101052.34
2023-04-18T20:41:10.726Z,101053.31
2023-04-18T20:43:38.956Z,101047.97
2023-04-18T20:46:07.790Z,101059.59
2023-04-18T20:48:36.195Z,101053.44
2023-04-18T20:51:06.102Z,101059.63
2023-04-18T20:53:34.218Z,101061.47
2023-04-18T20:56:04.960Z,101059.75
2023-04-18T20:58:33.186Z,101060.75
2023-04-18T21:01:01.604Z,101052.72
2023-04-18T21:03:29.908Z,101053.69
2023-04-18T21:05:58.547Z,101054.66
2023-04-18T21:08:28.081Z,101056.50
2023-04-18T21:10:56.564Z,101058.25
2023-04-18T21:13:24.817Z,101060.06
2023-04-18T21:15:53.435Z,101064.56
2023-04-18T21:18:21.530Z,101068.25
2023-04-18T21:20:50.268Z,101059.34
2023-04-18T21:23:20.583Z,101066.47
2023-04-18T21:28:06.268Z,101069.28
2023-04-18T21:30:34.602Z,101064.84
2023-04-18T21:33:02.849Z,101072.03
2023-04-18T21:35:31.326Z,101071.13
2023-04-18T21:38:01.818Z,101070.34
2023-04-18T21:40:31.262Z,101072.91
2023-04-18T21:42:59.815Z,101068.53
2023-04-18T21:45:29.862Z,101067.69
2023-04-18T21:47:58.211Z,101073.94
2023-04-18T21:50:26.833Z,101070.38
2023-04-18T21:52:55.264Z,101064.19
2023-04-18T21:55:23.780Z,101065.09
2023-04-18T21:57:52.215Z,101066.09
2023-04-18T22:00:22.881Z,101063.44
2023-04-18T22:02:52.915Z,101064.41
2023-04-18T22:05:21.401Z,101067.06
2023-04-18T22:07:58.195Z,101060.97
2023-04-18T22:10:26.860Z,101070.75
2023-04-18T22:12:56.217Z,101061.03
2023-04-18T22:15:27.101Z,101061.91
2023-04-18T22:17:59.231Z,101061.97
2023-04-18T22:20:33.555Z,101062.94
2023-04-18T22:23:03.223Z,101059.53
2023-04-18T22:25:34.211Z,101062.34
2023-04-18T23:16:08.206Z,101079.69
2023-04-18T23:18:38.667Z,101082.31
2023-04-18T23:21:09.410Z,101069.97
2023-04-18T23:23:37.907Z,101078.91
2023-04-18T23:26:14.288Z,101074.44
2023-04-18T23:28:42.776Z,101076.19
2023-04-18T23:31:12.459Z,101071.75
2023-04-18T23:33:40.910Z,101072.59
2023-04-18T23:36:11.804Z,101073.44
2023-04-18T23:38:42.413Z,101068.94
2023-04-18T23:41:10.963Z,101066.22
2023-04-18T23:43:41.610Z,101067.94
2023-04-18T23:46:10.134Z,101069.63
2023-04-18T23:48:42.240Z,101058.13
2023-04-18T23:51:12.492Z,101039.78
2023-04-18T23:53:40.632Z,101067.06
2023-04-18T23:56:08.912Z,101066.16
2023-04-18T23:58:37.510Z,101065.28
